createdAt,value
2018-05-07T00:01:31.021Z,99.90
2018-05-07T00:03:59.171Z,99.90
2018-05-07T00:06:27.373Z,99.90
2018-05-07T00:08:55.515Z,99.90
2018-05-07T00:11:23.703Z,99.90
2018-05-07T00:13:51.846Z,99.90
2018-05-07T00:16:20.008Z,99.90
2018-05-07T00:18:48.156Z,99.90
2018-05-07T00:21:16.323Z,99.90
2018-05-07T00:23:44.472Z,99.90
2018-05-07T00:26:12.640Z,99.90
2018-05-07T00:28:40.827Z,99.90
2018-05-07T00:31:08.983Z,99.90
2018-05-07T00:33:37.128Z,99.90
2018-05-07T00:36:05.305Z,99.90
2018-05-07T00:38:33.451Z,99.90
2018-05-07T00:41:01.628Z,99.90
2018-05-07T00:43:30.536Z,99.90
2018-05-07T00:45:58.709Z,99.90
2018-05-07T00:48:26.851Z,99.90
2018-05-07T00:50:55.052Z,99.90
2018-05-07T00:53:23.199Z,99.90
2018-05-07T00:55:51.340Z,99.90
2018-05-07T00:58:20.368Z,99.90
2018-05-07T01:00:48.511Z,99.90
2018-05-07T01:03:16.675Z,99.90
2018-05-07T01:05:44.816Z,99.90
2018-05-07T01:08:12.989Z,99.90
2018-05-07T01:10:41.185Z,99.90
2018-05-07T01:13:09.355Z,99.90
2018-05-07T01:15:37.506Z,99.90
2018-05-07T01:18:05.671Z,99.90
2018-05-07T01:20:33.825Z,99.90
2018-05-07T01:23:01.996Z,99.90
2018-05-07T01:25:30.145Z,99.90
2018-05-07T01:27:58.322Z,99.90
2018-05-07T01:30:26.464Z,99.90
2018-05-07T01:32:54.632Z,99.90
2018-05-07T01:35:22.778Z,99.90
2018-05-07T01:37:50.956Z,99.90
2018-05-07T01:40:19.864Z,99.90
2018-05-07T01:42:48.040Z,99.90
2018-05-07T01:45:16.190Z,99.90
2018-05-07T01:47:44.367Z,99.90
2018-05-07T01:50:12.516Z,99.90
2018-05-07T01:52:40.685Z,99.90
2018-05-07T01:55:08.855Z,99.90
2018-05-07T01:57:37.007Z,99.90
2018-05-07T02:00:05.179Z,99.90
2018-05-07T02:02:33.332Z,99.90
2018-05-07T02:05:01.515Z,99.90
2018-05-07T02:07:29.652Z,99.90
2018-05-07T02:09:58.592Z,99.90
2018-05-07T02:12:26.737Z,99.90
2018-05-07T02:14:55.668Z,99.90
2018-05-07T02:17:23.821Z,99.90
2018-05-07T02:19:51.983Z,99.90
2018-05-07T02:22:20.137Z,99.90
2018-05-07T02:24:48.311Z,99.90
2018-05-07T02:27:17.223Z,99.90
2018-05-07T02:29:45.399Z,99.90
2018-05-07T02:32:13.546Z,99.90
2018-05-07T02:34:41.719Z,99.90
2018-05-07T02:37:09.864Z,99.90
2018-05-07T02:39:38.056Z,99.90
2018-05-07T02:42:06.202Z,99.90
2018-05-07T02:44:34.344Z,99.90
2018-05-07T02:47:02.512Z,99.90
2018-05-07T02:49:30.657Z,99.90
2018-05-07T02:51:58.828Z,99.90
2018-05-07T02:54:26.977Z,99.90
2018-05-07T02:56:55.151Z,99.90
2018-05-07T02:59:23.300Z,99.90
2018-05-07T03:01:51.469Z,99.90
2018-05-07T03:04:19.618Z,99.90
2018-05-07T03:06:47.792Z,99.90
2018-05-07T03:09:15.940Z,99.90
2018-05-07T03:11:44.117Z,99.90
2018-05-07T03:14:12.264Z,99.90
2018-05-07T03:16:40.443Z,99.90
2018-05-07T03:19:08.589Z,99.90
2018-05-07T03:21:36.768Z,99.90
2018-05-07T03:24:04.916Z,99.90
2018-05-07T03:26:33.088Z,99.90
2018-05-07T03:29:01.234Z,99.90
2018-05-07T03:31:30.177Z,99.90
2018-05-07T03:33:58.323Z,99.90
2018-05-07T03:36:26.493Z,99.90
2018-05-07T03:38:54.643Z,99.90
2018-05-07T03:41:22.818Z,99.90
2018-05-07T03:43:50.955Z,99.90
2018-05-07T03:46:19.100Z,99.90
2018-05-07T03:48:47.334Z,99.90
2018-05-07T03:51:15.435Z,99.90
2018-05-07T03:53:43.607Z,99.90
2018-05-07T03:56:11.751Z,99.90
2018-05-07T03:58:39.926Z,99.90
2018-05-07T04:01:08.073Z,99.90
2018-05-07T04:03:36.243Z,99.90
2018-05-07T04:06:04.392Z,99.90
2018-05-07T04:08:32.564Z,99.90
2018-05-07T04:11:00.709Z,99.90
2018-05-07T04:13:28.885Z,99.90
2018-05-07T04:15:57.034Z,99.90
2018-05-07T04:18:37.012Z,99.90
2018-05-07T04:21:10.956Z,99.90
2018-05-07T04:23:50.850Z,99.90
2018-05-07T04:26:19.036Z,99.90
2018-05-07T04:28:47.198Z,99.90
2018-05-07T04:31:15.344Z,99.90
2018-05-07T04:33:43.562Z,99.90
2018-05-07T04:36:11.690Z,99.90
2018-05-07T04:38:39.861Z,99.90
2018-05-07T04:41:08.004Z,99.90
2018-05-07T04:43:36.177Z,99.90
2018-05-07T04:46:04.323Z,99.90
2018-05-07T04:48:33.255Z,99.90
2018-05-07T04:51:01.406Z,99.90
2018-05-07T04:53:29.583Z,99.90
2018-05-07T04:55:57.732Z,99.90
2018-05-07T04:58:25.900Z,99.90
2018-05-07T05:00:54.064Z,99.90
2018-05-07T05:03:22.233Z,99.90
2018-05-07T05:05:50.378Z,99.90
2018-05-07T05:08:18.552Z,99.90
2018-05-07T05:10:46.692Z,99.90
2018-05-07T05:13:14.834Z,99.90
2018-05-07T05:15:43.011Z,99.90
2018-05-07T05:18:11.151Z,99.90
2018-05-07T05:20:39.328Z,99.90
2018-05-07T05:23:07.485Z,99.90
2018-05-07T05:25:35.659Z,99.90
2018-05-07T05:28:03.813Z,99.90
2018-05-07T05:30:31.996Z,99.90
2018-05-07T05:33:00.153Z,99.90
2018-05-07T05:35:29.141Z,99.90
2018-05-07T05:37:58.056Z,99.90
2018-05-07T05:40:26.232Z,99.90
2018-05-07T05:42:54.389Z,99.90
2018-05-07T05:45:22.565Z,99.90
2018-05-07T05:47:50.722Z,99.90
2018-05-07T05:50:19.667Z,99.90
2018-05-07T05:52:47.841Z,99.90
2018-05-07T05:55:16.025Z,99.90
2018-05-07T05:57:44.186Z,99.90
2018-05-07T06:00:12.577Z,99.90
2018-05-07T06:02:40.748Z,99.90
2018-05-07T06:05:08.904Z,99.90
2018-05-07T06:07:37.087Z,99.90
2018-05-07T06:10:05.239Z,99.90
2018-05-07T06:12:33.415Z,99.90
2018-05-07T06:15:01.628Z,99.90
2018-05-07T06:17:29.767Z,99.90
2018-05-07T06:19:57.931Z,99.90
2018-05-07T06:22:26.107Z,99.90
2018-05-07T06:24:54.255Z,99.90
2018-05-07T06:27:23.298Z,99.90
2018-05-07T06:29:51.479Z,99.90
2018-05-07T06:32:19.656Z,99.90
2018-05-07T06:34:47.811Z,99.90
2018-05-07T06:37:16.012Z,99.90
2018-05-07T06:39:44.169Z,99.90
2018-05-07T06:42:12.343Z,99.90
2018-05-07T06:44:40.500Z,99.90
2018-05-07T06:47:08.681Z,99.90
2018-05-07T06:49:36.829Z,99.90
2018-05-07T06:52:05.033Z,99.90
2018-05-07T06:54:33.227Z,99.90
2018-05-07T06:57:01.440Z,99.90
2018-05-07T06:59:29.697Z,99.90
2018-05-07T07:01:58.739Z,99.90
2018-05-07T07:04:26.987Z,99.90
2018-05-07T07:06:55.968Z,99.90
2018-05-07T07:09:24.202Z,99.90
2018-05-07T07:11:52.748Z,99.90
2018-05-07T07:14:21.881Z,99.90
2018-05-07T07:16:50.076Z,99.90
2018-05-07T07:19:18.302Z,99.90
2018-05-07T07:21:46.528Z,99.90
2018-05-07T07:24:15.514Z,99.90
2018-05-07T07:26:43.676Z,99.90
2018-05-07T07:29:11.867Z,99.90
2018-05-07T07:31:40.033Z,99.90
2018-05-07T07:34:08.341Z,99.90
2018-05-07T07:36:36.431Z,98.20
2018-05-07T07:39:05.431Z,97.70
2018-05-07T07:41:33.597Z,97.20
2018-05-07T07:44:01.821Z,96.30
2018-05-07T07:46:30.005Z,95.80
2018-05-07T07:48:58.197Z,95.80
2018-05-07T07:51:26.384Z,96.00
2018-05-07T07:53:55.336Z,95.10
2018-05-07T07:56:23.496Z,95.00
2018-05-07T07:58:51.685Z,94.00
2018-05-07T08:01:19.856Z,94.50
2018-05-07T08:03:48.141Z,94.50
2018-05-07T08:06:16.299Z,94.20
2018-05-07T08:08:44.495Z,93.20
2018-05-07T08:11:12.648Z,93.10
2018-05-07T08:13:40.865Z,94.10
2018-05-07T08:16:09.065Z,92.50
2018-05-07T08:18:37.241Z,92.90
2018-05-07T08:21:05.495Z,92.10
2018-05-07T08:23:33.660Z,91.10
2018-05-07T08:26:02.623Z,91.70
2018-05-07T08:28:30.790Z,91.40
2018-05-07T08:30:59.041Z,91.60
2018-05-07T08:33:27.292Z,90.90
2018-05-07T08:35:55.516Z,91.40
2018-05-07T08:38:23.733Z,91.60
2018-05-07T08:40:52.727Z,89.70
2018-05-07T08:43:20.931Z,89.60
2018-05-07T08:45:49.282Z,87.80
2018-05-07T08:48:17.633Z,89.80
2018-05-07T08:50:45.912Z,90.70
2018-05-07T08:53:14.168Z,84.30
2018-05-07T08:55:42.353Z,88.80
2018-05-07T08:58:10.516Z,85.10
2018-05-07T09:00:38.745Z,86.10
2018-05-07T09:03:06.945Z,88.20
2018-05-07T09:05:35.149Z,85.60
2018-05-07T09:08:03.342Z,87.10
2018-05-07T09:10:31.485Z,90.30
2018-05-07T09:12:59.668Z,88.50
2018-05-07T09:15:27.831Z,86.30
2018-05-07T09:17:56.090Z,88.00
2018-05-07T09:20:24.243Z,85.50
2018-05-07T09:22:52.426Z,81.90
2018-05-07T09:25:20.582Z,87.40
2018-05-07T09:27:48.760Z,86.20
2018-05-07T09:30:16.924Z,84.20
2018-05-07T09:32:45.116Z,85.00
2018-05-07T09:35:13.272Z,83.10
2018-05-07T09:37:42.211Z,81.70
2018-05-07T09:40:10.365Z,81.70
2018-05-07T09:42:38.552Z,83.40
2018-05-07T09:45:06.699Z,87.00
2018-05-07T09:47:34.884Z,85.60
2018-05-07T09:50:03.046Z,85.90
2018-05-07T09:52:31.227Z,84.40
2018-05-07T09:54:59.384Z,83.00
2018-05-07T09:57:28.332Z,78.20
2018-05-07T09:59:56.504Z,78.10
2018-05-07T10:02:24.709Z,80.60
2018-05-07T10:04:53.623Z,81.70
2018-05-07T10:07:21.781Z,81.80
2018-05-07T10:09:50.726Z,83.10
2018-05-07T10:12:18.875Z,83.00
2018-05-07T10:14:47.053Z,84.80
2018-05-07T10:17:15.214Z,80.70
2018-05-07T10:19:43.396Z,79.80
2018-05-07T10:22:11.547Z,82.00
2018-05-07T10:24:40.486Z,84.00
2018-05-07T10:27:08.636Z,83.00
2018-05-07T10:29:36.815Z,79.90
2018-05-07T10:32:04.969Z,80.50
2018-05-07T10:34:33.157Z,80.80
2018-05-07T10:37:01.329Z,79.70
2018-05-07T10:39:29.509Z,83.20
2018-05-07T10:41:57.665Z,80.70
2018-05-07T10:44:25.844Z,78.20
2018-05-07T10:46:54.025Z,76.00
2018-05-07T10:49:22.204Z,79.00
2018-05-07T10:51:50.371Z,79.60
2018-05-07T10:54:18.572Z,79.60
2018-05-07T10:56:46.720Z,79.50
2018-05-07T10:59:14.876Z,80.00
2018-05-07T11:01:43.076Z,77.10
2018-05-07T11:04:11.229Z,80.50
2018-05-07T11:06:39.399Z,77.60
2018-05-07T11:09:07.562Z,79.90
2018-05-07T11:11:36.500Z,77.80
2018-05-07T11:14:04.655Z,77.70
2018-05-07T11:16:32.836Z,77.10
2018-05-07T11:19:01.001Z,79.60
2018-05-07T11:21:29.193Z,80.60
2018-05-07T11:23:57.363Z,83.10
2018-05-07T11:26:25.715Z,79.70
2018-05-07T11:28:53.872Z,80.60
2018-05-07T11:31:22.056Z,78.30
2018-05-07T11:33:50.239Z,77.00
2018-05-07T11:36:18.416Z,78.20
2018-05-07T11:38:46.571Z,78.50
2018-05-07T11:41:15.548Z,80.40
2018-05-07T11:43:43.695Z,80.30
2018-05-07T11:46:11.904Z,78.70
2018-05-07T11:48:40.079Z,78.50
2018-05-07T11:51:09.001Z,77.10
2018-05-07T11:53:37.195Z,77.20
2018-05-07T11:56:05.356Z,77.30
2018-05-07T11:58:33.590Z,78.60
2018-05-07T12:01:02.518Z,78.80
2018-05-07T12:03:30.727Z,78.70
2018-05-07T12:05:58.883Z,76.90
2018-05-07T12:08:27.056Z,78.80
2018-05-07T12:10:55.208Z,73.20
2018-05-07T12:13:23.387Z,73.90
2018-05-07T12:15:51.639Z,75.80
2018-05-07T12:18:19.745Z,77.80
2018-05-07T12:20:47.895Z,75.90
2018-05-07T12:23:16.136Z,76.60
2018-05-07T12:25:44.244Z,77.10
2018-05-07T12:28:12.421Z,76.80
2018-05-07T12:30:40.571Z,74.50
2018-05-07T12:33:08.773Z,75.90
2018-05-07T12:35:36.929Z,76.10
2018-05-07T12:38:05.857Z,77.30
2018-05-07T12:40:34.040Z,77.20
2018-05-07T12:43:02.184Z,73.40
2018-05-07T12:45:30.364Z,76.70
2018-05-07T12:47:58.558Z,74.30
2018-05-07T12:50:26.708Z,74.20
2018-05-07T12:52:54.891Z,72.70
2018-05-07T12:55:23.071Z,74.80
2018-05-07T12:57:51.305Z,74.60
2018-05-07T13:00:20.267Z,74.50
2018-05-07T13:02:48.456Z,74.50
2018-05-07T13:05:16.615Z,75.10
2018-05-07T13:07:44.808Z,74.20
2018-05-07T13:10:12.963Z,75.60
2018-05-07T13:12:41.144Z,78.90
2018-05-07T13:15:09.315Z,77.20
2018-05-07T13:17:37.467Z,76.30
2018-05-07T13:20:05.645Z,77.40
2018-05-07T13:22:33.830Z,74.30
2018-05-07T13:25:02.023Z,74.10
2018-05-07T13:27:30.191Z,75.90
2018-05-07T13:29:58.384Z,73.20
2018-05-07T13:32:27.309Z,73.60
2018-05-07T13:34:55.524Z,73.40
2018-05-07T13:37:23.679Z,73.10
2018-05-07T13:39:51.897Z,75.70
2018-05-07T13:42:20.830Z,76.80
2018-05-07T13:44:48.987Z,76.80
2018-05-07T13:47:17.203Z,77.10
2018-05-07T13:49:45.381Z,76.30
2018-05-07T13:52:13.572Z,76.50
2018-05-07T13:54:41.829Z,74.80
2018-05-07T13:57:10.049Z,76.40
2018-05-07T13:59:38.248Z,74.90
2018-05-07T14:02:06.476Z,76.40
2018-05-07T14:04:34.632Z,76.80
2018-05-07T14:07:02.784Z,76.00
2018-05-07T14:09:30.964Z,75.30
2018-05-07T14:11:59.149Z,77.60
2018-05-07T14:14:27.307Z,76.70
2018-05-07T14:16:55.495Z,77.30
2018-05-07T14:19:23.652Z,76.30
2018-05-07T14:21:51.826Z,75.60
2018-05-07T14:24:19.972Z,76.70
2018-05-07T14:26:48.163Z,75.40
2018-05-07T14:29:16.319Z,75.30
2018-05-07T14:31:44.482Z,74.80
2018-05-07T14:34:12.668Z,73.20
2018-05-07T14:36:40.819Z,72.70
2018-05-07T14:39:09.032Z,73.40
2018-05-07T14:41:37.221Z,74.10
2018-05-07T14:44:05.430Z,73.40
2018-05-07T14:46:33.583Z,72.70
2018-05-07T14:49:01.772Z,74.80
2018-05-07T14:51:29.922Z,71.20
2018-05-07T14:53:58.127Z,72.30
2018-05-07T14:56:26.279Z,74.60
2018-05-07T14:58:54.460Z,72.80
2018-05-07T15:01:22.612Z,72.80
2018-05-07T15:03:50.831Z,74.00
2018-05-07T15:06:18.989Z,75.10
2018-05-07T15:08:47.165Z,70.90
2018-05-07T15:11:15.359Z,71.80
2018-05-07T15:13:43.588Z,70.70
2018-05-07T15:16:11.740Z,71.50
2018-05-07T15:18:39.922Z,71.80
2018-05-07T15:21:08.080Z,73.40
2018-05-07T15:23:36.262Z,74.90
2018-05-07T15:26:04.433Z,72.80
2018-05-07T15:28:32.623Z,72.50
2018-05-07T15:31:00.773Z,73.00
2018-05-07T15:33:28.956Z,70.90
2018-05-07T15:35:57.112Z,69.80
2018-05-07T15:38:25.319Z,71.00
2018-05-07T15:40:53.471Z,72.90
2018-05-07T15:43:21.635Z,74.30
2018-05-07T15:45:49.813Z,76.10
2018-05-07T15:48:17.968Z,73.00
2018-05-07T15:50:46.914Z,75.40
2018-05-07T15:53:15.081Z,75.40
2018-05-07T15:55:43.273Z,74.20
2018-05-07T15:58:11.437Z,74.10
2018-05-07T16:00:39.616Z,74.40
2018-05-07T16:03:07.914Z,74.70
2018-05-07T16:05:36.736Z,74.80
2018-05-07T16:08:04.916Z,74.30
2018-05-07T16:10:33.084Z,74.70
2018-05-07T16:13:01.279Z,74.50
2018-05-07T16:15:29.512Z,75.50
2018-05-07T16:17:57.641Z,74.40
2018-05-07T16:20:25.825Z,75.40
2018-05-07T16:22:54.026Z,75.60
2018-05-07T16:25:22.195Z,75.10
2018-05-07T16:27:50.447Z,75.10
2018-05-07T16:30:18.676Z,77.60
2018-05-07T16:32:46.828Z,78.30
2018-05-07T16:35:15.788Z,79.50
2018-05-07T16:37:43.949Z,79.50
2018-05-07T16:40:12.175Z,79.30
2018-05-07T16:42:41.112Z,81.90
2018-05-07T16:45:09.337Z,81.90
2018-05-07T16:47:38.272Z,82.60
2018-05-07T16:50:06.460Z,82.60
2018-05-07T16:52:34.621Z,82.70
2018-05-07T16:55:02.824Z,82.70
2018-05-07T16:57:30.992Z,83.10
2018-05-07T16:59:59.196Z,83.20
2018-05-07T17:02:28.182Z,84.30
2018-05-07T17:04:56.341Z,84.30
2018-05-07T17:07:24.584Z,84.70
2018-05-07T17:09:52.731Z,84.90
2018-05-07T17:12:20.932Z,85.20
2018-05-07T17:14:49.084Z,86.10
2018-05-07T17:17:17.278Z,86.50
2018-05-07T17:19:45.433Z,87.00
2018-05-07T17:22:13.618Z,87.90
2018-05-07T17:24:41.851Z,88.40
2018-05-07T17:27:10.049Z,88.50
2018-05-07T17:29:38.192Z,89.40
2018-05-07T17:32:06.398Z,90.10
2018-05-07T17:34:34.575Z,90.30
2018-05-07T17:37:02.747Z,90.30
2018-05-07T17:39:30.930Z,90.20
2018-05-07T17:41:59.092Z,90.20
2018-05-07T17:44:39.083Z,90.50
2018-05-07T17:47:19.004Z,90.80
2018-05-07T17:49:47.195Z,91.00
2018-05-07T17:52:15.393Z,91.40
2018-05-07T17:54:43.613Z,91.80
2018-05-07T17:57:12.540Z,91.90
2018-05-07T17:59:40.746Z,91.90
2018-05-07T18:02:08.909Z,92.10
2018-05-07T18:04:37.153Z,92.30
2018-05-07T18:07:05.309Z,92.30
2018-05-07T18:09:33.506Z,92.50
2018-05-07T18:12:01.662Z,92.50
2018-05-07T18:14:29.849Z,92.50
2018-05-07T18:16:58.026Z,92.60
2018-05-07T18:19:26.418Z,92.90
2018-05-07T18:21:54.649Z,93.20
2018-05-07T18:24:23.180Z,93.00
2018-05-07T18:26:51.366Z,93.10
2018-05-07T18:29:19.578Z,93.10
2018-05-07T18:31:47.869Z,93.40
2018-05-07T18:34:16.075Z,93.40
2018-05-07T18:36:44.240Z,93.60
2018-05-07T18:39:12.401Z,93.70
2018-05-07T18:41:40.608Z,93.90
2018-05-07T18:44:08.759Z,94.40
2018-05-07T18:46:36.942Z,94.70
2018-05-07T18:49:05.103Z,94.80
2018-05-07T18:51:33.291Z,95.10
2018-05-07T18:54:01.456Z,95.40
2018-05-07T18:56:29.772Z,95.50
2018-05-07T18:58:57.935Z,95.60
2018-05-07T19:01:26.139Z,95.90
2018-05-07T19:03:55.090Z,96.00
2018-05-07T19:06:23.303Z,95.90
2018-05-07T19:08:51.493Z,96.20
2018-05-07T19:11:19.697Z,96.30
2018-05-07T19:13:47.860Z,96.30
2018-05-07T19:16:16.898Z,96.50
2018-05-07T19:18:45.064Z,96.70
2018-05-07T19:21:13.285Z,96.80
2018-05-07T19:23:41.512Z,97.00
2018-05-07T19:26:09.747Z,97.20
2018-05-07T19:28:37.920Z,97.30
2018-05-07T19:31:06.108Z,97.40
2018-05-07T19:33:34.260Z,97.40
2018-05-07T19:36:02.485Z,97.60
2018-05-07T19:38:31.455Z,97.80
2018-05-07T19:40:59.674Z,97.90
2018-05-07T19:43:27.832Z,98.40
2018-05-07T19:45:56.007Z,98.00
2018-05-07T19:48:24.303Z,98.30
2018-05-07T19:50:52.475Z,98.50
2018-05-07T19:53:20.683Z,98.80
2018-05-07T19:55:48.914Z,98.70
2018-05-07T19:58:17.079Z,98.80
2018-05-07T20:00:45.299Z,98.90
2018-05-07T20:03:13.576Z,99.00
2018-05-07T20:05:41.745Z,99.10
2018-05-07T20:08:09.937Z,99.50
2018-05-07T20:10:38.096Z,99.70
2018-05-07T20:13:06.280Z,99.90
2018-05-07T20:15:34.449Z,99.90
2018-05-07T20:18:02.630Z,99.90
2018-05-07T20:20:30.784Z,99.90
2018-05-07T20:22:58.964Z,99.90
2018-05-07T20:25:27.115Z,99.90
2018-05-07T20:27:55.300Z,99.90
2018-05-07T20:30:23.450Z,99.90
2018-05-07T20:32:51.645Z,99.90
2018-05-07T20:35:19.808Z,99.90
2018-05-07T20:37:48.009Z,99.90
2018-05-07T20:40:16.180Z,99.90
2018-05-07T20:42:44.388Z,99.90
2018-05-07T20:45:12.628Z,99.90
2018-05-07T20:47:40.756Z,99.90
2018-05-07T20:50:08.943Z,99.90
2018-05-07T20:52:37.093Z,99.90
2018-05-07T20:55:05.276Z,99.90
2018-05-07T20:57:33.432Z,99.90
2018-05-07T21:00:01.615Z,99.90
2018-05-07T21:02:29.768Z,99.90
2018-05-07T21:04:57.945Z,99.90
2018-05-07T21:07:26.101Z,99.90
2018-05-07T21:09:54.304Z,99.90
2018-05-07T21:12:22.453Z,99.90
2018-05-07T21:14:50.628Z,99.90
2018-05-07T21:17:18.775Z,99.90
2018-05-07T21:19:46.957Z,99.90
2018-05-07T21:22:15.109Z,99.90
2018-05-07T21:24:43.277Z,99.90
2018-05-07T21:27:11.427Z,99.90
2018-05-07T21:29:39.609Z,99.90
2018-05-07T21:32:07.764Z,99.90
2018-05-07T21:34:35.939Z,99.90
2018-05-07T21:37:04.087Z,99.90
2018-05-07T21:39:32.280Z,99.90
2018-05-07T21:42:00.432Z,99.90
2018-05-07T21:44:28.590Z,99.90
2018-05-07T21:46:56.766Z,99.90
2018-05-07T21:49:25.686Z,99.90
2018-05-07T21:51:53.859Z,99.90
2018-05-07T21:54:22.012Z,99.90
2018-05-07T21:56:50.184Z,99.90
2018-05-07T21:59:18.332Z,99.90
2018-05-07T22:01:46.504Z,99.90
2018-05-07T22:04:14.656Z,99.90
2018-05-07T22:06:42.840Z,99.90
2018-05-07T22:09:10.992Z,99.90
2018-05-07T22:11:39.168Z,99.90
2018-05-07T22:14:07.323Z,99.90
2018-05-07T22:16:35.497Z,99.90
2018-05-07T22:19:03.649Z,99.90
2018-05-07T22:21:31.834Z,99.90
2018-05-07T22:23:59.996Z,99.90
2018-05-07T22:26:28.176Z,99.90
2018-05-07T22:28:56.327Z,99.90
2018-05-07T22:31:24.507Z,99.90
2018-05-07T22:33:53.426Z,99.90
2018-05-07T22:36:21.604Z,99.90
2018-05-07T22:38:49.753Z,99.90
2018-05-07T22:41:17.964Z,99.90
2018-05-07T22:43:46.118Z,99.90
2018-05-07T22:46:14.299Z,99.90
2018-05-07T22:48:42.464Z,99.90
2018-05-07T22:51:10.644Z,99.90
2018-05-07T22:53:38.795Z,99.90
2018-05-07T22:56:06.976Z,99.90
2018-05-07T22:58:35.128Z,99.90
2018-05-07T23:01:04.076Z,99.90
2018-05-07T23:03:32.223Z,99.90
2018-05-07T23:06:00.403Z,99.90
2018-05-07T23:08:28.554Z,99.90
2018-05-07T23:10:56.729Z,99.90
2018-05-07T23:13:25.646Z,99.90
2018-05-07T23:15:53.819Z,99.90
2018-05-07T23:18:21.972Z,99.90
2018-05-07T23:20:50.171Z,99.90
2018-05-07T23:23:18.329Z,99.90
2018-05-07T23:25:46.484Z,99.90
2018-05-07T23:28:14.660Z,99.90
2018-05-07T23:30:42.812Z,99.90
2018-05-07T23:33:10.996Z,99.90
2018-05-07T23:35:39.156Z,99.90
2018-05-07T23:38:07.332Z,99.90
2018-05-07T23:40:35.484Z,99.90
2018-05-07T23:43:03.668Z,99.90
2018-05-07T23:45:31.820Z,99.90
2018-05-07T23:48:00.009Z,99.90
2018-05-07T23:50:28.154Z,99.90
2018-05-07T23:52:56.324Z,99.90
2018-05-07T23:55:24.477Z,99.90
2018-05-07T23:57:52.649Z,99.90
